Casper, WY

12:48 AM MDT on August 27, 2016 (GMT -0600)
Grant Avenue | | Change Station

Elev 5164 ft 42.84 °N, 106.32 °W | Updated 2 minutes ago

Clear
Clear
54.3 °F
Feels Like 54.3 °F
N
0.6
Wind Variable Wind from NW
Gusts 1.9 mph

Today
High -- | Low -- °F
--% Chance of Precip.
Yesterday
High -- | Low -- °F
Precip. -- in
Pressure 29.95 in
Visibility 10.0 miles
Clouds Clear
Dew Point 48 °F
Humidity 78%
Rainfall 0.00 in
Snow Depth Not available.
6:25 AM 7:47 PM
Waning Crescent, 27% visible
METAR KCPR 270553Z AUTO 32006KT 10SM CLR 09/08 A3007 RMK AO2 SLP141 60000 T00890078 10178 20089 58000 $
Pressure 29.95 in
Visibility 10.0 miles
Clouds Clear
Dew Point 48 °F
Humidity 78%
Rainfall 0.00 in
Snow Depth Not available.
6:25 AM 7:47 PM
Waning Crescent, 27% visible
METAR KCPR 270553Z AUTO 32006KT 10SM CLR 09/08 A3007 RMK AO2 SLP141 60000 T00890078 10178 20089 58000 $

10-Day Weather Forecast

Almanac

Astronomy

Aug. 27, 2016 Rise Set
Actual Time
Civil Twilight
Nautical Twilight
Astronomical Twilight
Moon
Length of Visible Light
Length of Day
Tomorrow will be .
, % of the Moon is Illuminated

Today's Extremes

State Highs State Lows

Community

WunderPhotos

Upload Photos

1,935,303 photos uploaded!

WunderBlog® & News

Nearby

Air Quality

  Air Quality AQ Index Pollutant
Not available.

Snow Depth

Station Depth Elevation

Earthquake Activity

City Distance Mag. Time & Date
Minimum magnitude displayed is 2.5.

Coastal Water Temperatures

Place Temperature

Stations

Nearby Weather Stations

Station Location Temp. Windchill Dew Point Humidity Wind Precip. Elev Updated Type
                   

Watches & Warnings

Fire Weather Watch
Issued: 1:29 PM MDT Aug. 26, 2016 – National Weather Service

... Fire Weather Watch in effect from Saturday afternoon through
Saturday evening for very low relative humidity... strong wind
gusts and critically dry fuels for fire weather zone 280...

The National Weather Service in Riverton has issued a Fire
Weather Watch... which is in effect from Saturday afternoon
through Saturday evening.

* Affected area... fire weather zone 280.

* Wind... southwest 10 to 15 with gusts to 25 mph.

* Humidity... 10 to 15 percent.

* Impacts... any fires that develop will likely spread rapidly.
Outdoor burning is not recommended.

Precautionary/preparedness actions...

A Fire Weather Watch means that critical fire weather conditions
are forecast to occur. Listen for later forecasts and possible
red flag warnings.